Main page
METAR-TAF:

METAR-TAF

Airports :

Cornwall Airport Newquay

Newquay Cornwall, England

latitude: 50-26N, longitude: 005-00W, elevation: 119 m

Current weather observation

The report was made 2 hours and 59 minutes ago, at 20:20 UTC
Wind 10 kt from the East
Temperature 13°C
Humidity 67%
Pressure 999 hPa
Visibility: 8000 m

METAR: EGHQ 222020Z 09010KT 8000 NSC 13/07 Q0999

Time: 00:19 (23:19 UTC)

Forecast

The report was made 6 hours and 23 minutes ago, at 16:56 UTC
Forecast valid from 22 at 18 UTC to 22 at 21 UTC
Wind 13 kt from the East/Southeast
Visibility 10 km or more
no clouds below 1500 m and no cumulonimbus
Probability 30% :
Temporary
from 22 at 18 UTC to 22 at 21 UTC
Wind 16 kt from the Southeast with gusts up to 26 kt
Visibility: 8000 m
rain showers

TAF: EGHQ 221656Z 2218/2221 11013KT CAVOK PROB30 TEMPO 2218/2221 13016G26KT 8000 SHRA

Weather observations and forecasts of more than 4000 airports (METAR and TAF reports).

The available stations are represented by yellow and red dots on the map.

Hover mouse over dot to see the name of the station.

Then click to see weather observations and forecasts.

To change the map : click on the green buttons with a black cross to zoom in, on the green button with a dash to zoom out, or on the green arrows for adjacent maps.


METAR-TAF: